FW1702 Weather Reports


Display with metric or nautical units.
time (UTC)temp
F
wind
direction
speed
MPH
gust
MPH
rain 1hr
in
rain 24hr
in
rain mn
in
humidity
%
barometer
mb
20200402184504 80 104 5.0 8.0 0.00 0.00 0.00 53 1015.3
20200402183002 79 80 4.0 11.0 0.00 0.00 0.00 52 1015.3
20200402181501 80 74 6.0 10.0 0.00 0.00 0.00 53 1015.5
20200402180000 79 74 4.0 9.0 0.00 0.00 0.00 53 1015.6
20200402174639 78 72 5.0 12.0 0.00 0.00 0.00 54 1015.8
20200402173200 80 78 3.0 10.0 0.00 0.00 0.00 52 1016.2
20200402171602 79 77 4.0 11.0 0.00 0.00 0.00 53 1016.4
20200402170236 80 77 3.0 10.0 0.00 0.00 0.00 53 1016.6
20200402164631 79 40 4.0 11.0 0.00 0.00 0.00 56 1016.7
20200402163205 79 81 4.0 10.0 0.00 0.00 0.00 56 1016.8
20200402161635 78 36 2.0 10.0 0.00 0.00 0.00 56 1016.8
20200402160152 79 46 2.0 10.0 0.00 0.00 0.00 56 1017.0
20200402154617 78 79 4.0 10.0 0.00 0.00 0.00 57 1017.1
20200402153318 77 13 1.0 9.0 0.00 0.00 0.00 59 1017.1
20200402151615 77 56 3.0 9.0 0.00 0.00 0.00 58 1017.2
20200402150203 77 360 4.0 10.0 0.00 0.00 0.00 58 1017.1
20200402144609 76 325 4.0 10.0 0.00 0.00 0.00 59 1017.0
20200402143109 75 25 3.0 8.0 0.00 0.00 0.00 60 1017.0
20200402141625 75 350 2.0 8.0 0.00 0.00 0.00 62 1016.8
20200402140105 74 48 3.0 10.0 0.00 0.00 0.00 64 1016.7
20200402134546 73 343 3.0 10.0 0.00 0.01 0.00 66 1016.7
20200402133113 72 315 4.0 9.0 0.00 0.01 0.00 67 1016.6
20200402131549 72 306 2.0 7.0 0.00 0.01 0.00 68 1016.5
20200402130107 70 340 1.0 9.0 0.00 0.01 0.00 70 1016.2
20200402124525 69 15 3.0 8.0 0.00 0.01 0.00 71 1016.0
20200402123122 68 326 2.0 8.0 0.00 0.01 0.00 74 1016.0
20200402121545 66 325 2.0 8.0 0.00 0.01 0.00 75 1015.9
20200402120102 65 294 1.0 4.0 0.00 0.01 0.00 77 1015.8
20200402114527 64 293 1.0 4.0 0.00 0.01 0.00 79 1015.9
20200402113031 64 292 0.0 2.0 0.00 0.01 0.00 79 1015.5
20200402111524 64 293 1.0 4.0 0.00 0.01 0.00 79 1015.3
20200402110017 64 293 1.0 4.0 0.00 0.01 0.00 79 1015.0
20200402104515 64 296 1.0 5.0 0.00 0.01 0.00 80 1015.0
20200402103015 64 302 1.0 5.0 0.00 0.01 0.00 80 1015.0
20200402101526 64 306 1.0 4.0 0.00 0.01 0.00 81 1014.8
20200402100040 63 306 2.0 5.0 0.00 0.01 0.00 82 1014.6
20200402094514 63 306 1.0 4.0 0.00 0.01 0.00 81 1014.3
20200402093039 64 306 0.0 3.0 0.00 0.01 0.00 80 1014.2
20200402091538 64 306 0.0 3.0 0.00 0.01 0.00 79 1014.2
20200402090010 65 306 1.0 3.0 0.00 0.09 0.00 77 1014.3
20200402084500 65 306 2.0 7.0 0.00 0.09 0.00 75 1014.2
20200402083222 68 298 2.0 4.0 0.00 0.09 0.00 70 1014.3
20200402081654 69 335 0.0 5.0 0.00 0.09 0.00 69 1014.2
20200402080153 69 32 2.0 5.0 0.00 0.09 0.00 70 1014.2
20200402074726 69 11 2.0 9.0 0.00 0.09 0.00 69 1013.9
20200402073204 69 24 2.0 9.0 0.00 0.09 0.00 67 1013.7
20200402071652 69 19 2.0 9.0 0.00 0.09 0.00 69 1013.9
20200402070303 70 24 2.0 8.0 0.00 0.09 0.00 69 1014.0
20200402063108 69 14 2.0 8.0 0.00 0.09 0.00 69 1014.2
20200402061606 70 9 2.0 10.0 0.00 0.09 0.00 68 1014.3
20200402060155 70 43 3.0 8.0 0.00 0.09 0.00 69 1014.2
20200402054655 70 59 3.0 9.0 0.00 0.09 0.00 70 1014.4
20200402053121 70 5 3.0 8.0 0.00 0.09 0.00 71 1014.7
20200402051614 70 349 4.0 9.0 0.00 0.09 0.00 72 1014.8
20200402050135 70 355 3.0 10.0 0.00 0.09 0.00 72 1014.8
20200402044541 70 36 3.0 8.0 0.00 0.09 0.00 72 1014.6
20200402043114 70 70 2.0 8.0 0.00 0.09 0.00 73 1014.6
20200402041550 70 61 2.0 9.0 0.00 0.09 0.00 73 1014.5
20200402040036 70 348 3.0 9.0 0.00 0.09 0.00 73 1014.5
20200402034614 70 15 3.0 8.0 0.00 0.09 0.09 73 1014.3
20200402033041 70 25 3.0 10.0 0.00 0.09 0.09 74 1014.3
20200402031528 70 360 2.0 6.0 0.00 0.09 0.09 74 1014.3
20200402030034 70 349 3.0 11.0 0.00 0.09 0.09 74 1014.1
20200402024526 70 29 2.0 8.0 0.00 0.09 0.09 75 1013.8
20200402023049 69 37 2.0 6.0 0.00 0.09 0.09 75 1013.7
20200402021557 69 355 1.0 5.0 0.00 0.09 0.09 76 1013.3
20200402020100 69 54 2.0 9.0 0.00 0.09 0.09 76 1013.2
20200402014527 68 307 0.0 4.0 0.00 0.09 0.09 76 1013.1
20200402013015 68 302 2.0 4.0 0.00 0.09 0.09 75 1012.9
20200402011524 68 300 0.0 5.0 0.00 0.09 0.09 74 1012.7
20200402010014 68 301 1.0 5.0 0.00 0.09 0.09 74 1012.7
20200402004510 69 339 1.0 4.0 0.00 0.09 0.09 74 1012.6
20200402003008 69 355 1.0 8.0 0.00 0.09 0.09 74 1012.4
20200402001512 70 337 1.0 9.0 0.00 0.09 0.09 72 1012.3
20200402000110 70 5 4.0 10.0 0.00 0.09 0.09 73 1012.0
20200401234656 70 312 3.0 9.0 0.00 0.09 0.09 71 1012.0
20200401233136 70 19 3.0 8.0 0.00 0.09 0.09 71 1011.6
20200401231808 72 360 2.0 9.0 0.00 0.09 0.09 68 1011.5
20200401230130 72 29 2.0 9.0 0.00 0.09 0.09 68 1011.5
20200401224633 73 344 5.0 11.0 0.00 0.09 0.09 67 1011.3
20200401223126 73 355 6.0 11.0 0.00 0.09 0.09 66 1011.2
20200401221652 73 11 4.0 11.0 0.00 0.09 0.09 66 1011.1
20200401220133 74 360 4.0 11.0 0.00 0.09 0.09 64 1011.0
20200401214712 75 47 2.0 11.0 0.00 0.09 0.09 63 1011.0
20200401213126 75 334 4.0 12.0 0.00 0.09 0.09 64 1010.9
20200401211640 75 337 6.0 12.0 0.00 0.09 0.09 63 1010.8
20200401210110 76 49 3.0 15.0 0.00 0.09 0.09 63 1010.6
20200401204647 75 10 6.0 15.0 0.00 0.09 0.09 63 1010.5
20200401203134 76 355 5.0 14.0 0.00 0.09 0.09 64 1010.5
20200401201600 77 355 7.0 16.0 0.00 0.09 0.09 62 1010.4
20200401200116 76 52 3.0 15.0 0.00 0.09 0.09 63 1010.3
20200401194709 76 348 7.0 14.0 0.00 0.09 0.09 62 1010.2
20200401193108 77 347 8.0 14.0 0.00 0.09 0.09 63 1010.3
20200401191620 78 338 5.0 13.0 0.00 0.09 0.09 65 1010.2